Time;durP1;ratioP1;P1;durP2;ratioP2;P2;SDS_P1;SDS_P2;PMS_P1;PMS_P2;Temp;Humidity;BMP_temperature;BMP_pressure;BME280_temperature;BME280_humidity;BME280_pressure;Samples;Min_cycle;Max_cycle;Signal;HPM_P1;HPM_P2
2021/01/19 00:00:25;;;;;;;30.77;16.40;;;6.20;94.20;;;;;;4940922;29;20035;-83
2021/01/19 00:02:50;;;;;;;35.83;17.13;;;6.20;94.20;;;;;;4957718;29;20051;-81
2021/01/19 00:05:16;;;;;;;36.17;18.20;;;6.20;94.10;;;;;;4940679;29;20031;-81
2021/01/19 00:07:42;;;;;;;37.27;17.77;;;6.20;94.10;;;;;;4957908;29;20049;-78
2021/01/19 00:10:08;;;;;;;25.37;17.77;;;6.20;94.00;;;;;;4957637;29;20024;-80
2021/01/19 00:12:34;;;;;;;24.90;16.10;;;6.20;93.80;;;;;;4957522;29;20028;-80
2021/01/19 00:14:59;;;;;;;28.97;15.97;;;6.20;93.90;;;;;;4940489;29;20118;-81
2021/01/19 00:17:25;;;;;;;26.47;14.80;;;6.20;93.80;;;;;;4957682;29;20038;-80
2021/01/19 00:19:51;;;;;;;29.50;15.73;;;6.20;93.80;;;;;;4940543;29;20035;-81
2021/01/19 00:22:16;;;;;;;20.53;13.67;;;6.20;93.80;;;;;;4957786;29;20090;-81
2021/01/19 00:24:42;;;;;;;21.33;13.27;;;6.20;93.80;;;;;;4945911;29;20032;-81
2021/01/19 00:27:07;;;;;;;25.47;13.97;;;6.20;93.70;;;;;;4920039;29;20035;-80
2021/01/19 00:29:33;;;;;;;24.97;12.20;;;6.20;93.60;;;;;;4937883;29;20024;-80
2021/01/19 00:31:58;;;;;;;21.57;11.47;;;6.20;93.60;;;;;;4937068;29;20064;-81
2021/01/19 00:34:24;;;;;;;25.53;12.50;;;6.20;93.50;;;;;;4938378;29;20023;-81
2021/01/19 00:36:50;;;;;;;20.20;10.43;;;6.20;93.40;;;;;;4936948;29;20087;-75
2021/01/19 00:39:15;;;;;;;18.53;9.50;;;6.30;93.40;;;;;;4920761;29;20119;-73
2021/01/19 00:41:41;;;;;;;24.00;9.03;;;6.10;93.30;;;;;;4904998;29;20118;-73
2021/01/19 00:44:07;;;;;;;17.43;9.10;;;6.20;93.20;;;;;;4920356;29;20130;-73
2021/01/19 00:46:33;;;;;;;22.10;8.40;;;6.20;93.20;;;;;;4937915;29;20051;-73
2021/01/19 00:48:59;;;;;;;18.93;8.40;;;6.20;93.20;;;;;;4920582;29;20019;-74
2021/01/19 00:51:32;;;;;;;16.73;7.97;;;6.20;93.20;;;;;;4936528;29;20032;-73
2021/01/19 00:53:58;;;;;;;16.43;8.13;;;6.10;93.20;;;;;;4937705;29;20392;-73
2021/01/19 00:56:23;;;;;;;16.63;7.50;;;6.10;93.10;;;;;;4937541;29;20032;-74
2021/01/19 00:58:49;;;;;;;16.77;7.83;;;6.10;92.90;;;;;;4936060;29;20391;-73
2021/01/19 01:01:15;;;;;;;16.93;7.43;;;6.10;92.90;;;;;;4937572;29;20032;-73
2021/01/19 01:03:40;;;;;;;21.53;8.10;;;6.10;92.80;;;;;;4889037;29;20032;-73
2021/01/19 01:06:06;;;;;;;17.13;6.37;;;6.10;92.70;;;;;;4904822;29;20481;-73
2021/01/19 01:08:31;;;;;;;15.60;5.30;;;6.10;92.80;;;;;;4889015;29;20019;-73
2021/01/19 01:10:57;;;;;;;19.93;6.43;;;6.10;92.70;;;;;;4937347;29;20079;-74
2021/01/19 01:13:22;;;;;;;15.30;5.40;;;6.10;92.70;;;;;;4920306;29;20036;-74
2021/01/19 01:15:48;;;;;;;16.20;5.90;;;6.10;92.60;;;;;;4904509;29;20042;-74
2021/01/19 01:18:14;;;;;;;18.53;5.33;;;6.10;92.60;;;;;;4937115;29;20103;-73
2021/01/19 01:20:41;;;;;;;17.97;5.67;;;6.10;92.30;;;;;;4936950;29;20035;-73
2021/01/19 01:23:07;;;;;;;17.60;5.30;;;6.10;92.30;;;;;;4936980;29;20028;-75
2021/01/19 01:25:33;;;;;;;15.97;4.37;;;6.10;92.20;;;;;;4935771;29;20078;-74
2021/01/19 01:27:59;;;;;;;13.67;4.47;;;6.10;92.10;;;;;;4935642;29;20102;-74
2021/01/19 01:30:26;;;;;;;16.60;4.23;;;6.10;92.10;;;;;;4935716;29;20034;-74
2021/01/19 01:32:51;;;;;;;18.20;4.83;;;6.10;91.90;;;;;;4904302;29;20032;-73
2021/01/19 01:35:20;;;;;;;13.30;3.57;;;6.10;91.90;;;;;;4936921;29;20102;-74
2021/01/19 01:37:51;;;;;;;14.80;4.80;;;6.10;91.70;;;;;;4937003;29;20106;-74
2021/01/19 01:40:22;;;;;;;17.33;4.23;;;6.10;91.70;;;;;;4936773;29;20031;-75
2021/01/19 01:42:50;;;;;;;15.30;4.33;;;6.10;91.70;;;;;;4936516;29;20160;-74
2021/01/19 01:45:19;;;;;;;13.17;3.80;;;6.10;91.70;;;;;;4936792;29;20047;-81
2021/01/19 01:47:46;;;;;;;14.30;3.60;;;6.10;91.50;;;;;;4936881;29;20027;-81
2021/01/19 01:50:13;;;;;;;12.87;4.30;;;6.10;91.60;;;;;;4936705;29;20038;-74
2021/01/19 01:52:39;;;;;;;20.77;3.63;;;6.10;91.40;;;;;;4919360;29;20471;-74
2021/01/19 01:55:05;;;;;;;16.50;3.87;;;6.00;91.10;;;;;;4936337;29;20063;-73
2021/01/19 01:57:32;;;;;;;15.17;3.47;;;6.00;91.10;;;;;;4936572;29;20043;-73
2021/01/19 02:00:03;;;;;;;16.90;3.47;;;6.00;91.10;;;;;;4919654;29;20058;-74
2021/01/19 02:02:29;;;;;;;15.77;3.40;;;6.00;90.90;;;;;;4935917;29;20034;-73
2021/01/19 02:04:54;;;;;;;17.40;3.23;;;5.90;90.80;;;;;;4919433;29;20403;-73
2021/01/19 02:07:36;;;;;;;11.87;3.03;;;5.90;90.90;;;;;;4903448;29;20032;-73
2021/01/19 02:10:32;;;;;;;14.57;2.40;;;5.90;90.90;;;;;;4919258;29;20023;-73
2021/01/19 02:13:10;;;;;;;17.37;3.10;;;6.00;90.90;;;;;;4936246;29;20027;-74
2021/01/19 02:15:43;;;;;;;13.83;2.80;;;6.00;90.70;;;;;;4936216;29;20078;-73
2021/01/19 02:18:42;;;;;;;19.33;2.60;;;5.90;90.70;;;;;;4936200;29;20032;-73
2021/01/19 02:21:35;;;;;;;10.07;2.80;;;5.90;90.70;;;;;;4936048;29;20043;-74
2021/01/19 02:24:12;;;;;;;14.30;2.47;;;5.90;90.60;;;;;;4934655;29;20027;-73
2021/01/19 02:27:15;;;;;;;15.50;2.67;;;6.00;90.60;;;;;;4936247;29;20027;-73
2021/01/19 02:29:43;;;;;;;13.10;2.40;;;5.90;90.60;;;;;;4934682;29;20407;-75
2021/01/19 02:32:17;;;;;;;12.63;2.67;;;6.00;90.50;;;;;;4934653;29;20495;-74
2021/01/19 02:34:53;;;;;;;16.50;2.30;;;5.90;90.30;;;;;;4935830;29;20031;-73
2021/01/19 02:37:35;;;;;;;10.43;2.27;;;5.90;90.20;;;;;;4918929;29;20028;-73
2021/01/19 02:40:05;;;;;;;14.93;2.60;;;6.00;90.30;;;;;;4935974;29;20035;-74
2021/01/19 02:42:39;;;;;;;11.20;2.17;;;6.00;90.10;;;;;;4934295;29;20484;-74
2021/01/19 02:45:05;;;;;;;;;;;6.00;90.10;;;;;;4936208;29;20031;-73
2021/01/19 02:47:31;;;;;;;8.30;1.90;;;6.00;89.70;;;;;;4918873;29;19911;-74
2021/01/19 02:49:57;;;;;;;9.93;2.00;;;6.00;89.90;;;;;;4935784;29;20057;-73
2021/01/19 02:52:24;;;;;;;13.80;2.10;;;5.90;89.90;;;;;;4936030;29;20074;-73
2021/01/19 02:54:51;;;;;;;16.93;2.97;;;5.90;90.00;;;;;;4934674;29;20063;-73
2021/01/19 02:57:19;;;;;;;10.87;2.40;;;5.90;90.00;;;;;;4935823;29;20035;-73
2021/01/19 03:00:00;;;;;;;13.33;1.97;;;5.90;90.00;;;;;;4935643;29;20115;-74
2021/01/19 03:02:32;;;;;;;9.50;2.43;;;5.90;90.00;;;;;;4934505;29;20036;-74
2021/01/19 03:05:01;;;;;;;13.37;2.70;;;5.90;90.00;;;;;;4935623;29;20040;-74
2021/01/19 03:07:30;;;;;;;8.53;2.10;;;5.90;89.90;;;;;;4935654;29;20417;-74
2021/01/19 03:09:58;;;;;;;12.23;2.70;;;5.90;90.00;;;;;;4935591;29;20024;-74
2021/01/19 03:12:25;;;;;;;17.83;3.43;;;5.80;89.80;;;;;;4935659;29;20035;-74
2021/01/19 03:14:50;;;;;;;14.70;3.87;;;5.80;89.80;;;;;;4936183;29;20110;-73
2021/01/19 03:17:16;;;;;;;13.23;2.77;;;5.80;89.70;;;;;;4922542;29;20123;-73
2021/01/19 03:19:43;;;;;;;10.93;2.83;;;5.90;89.90;;;;;;4906795;29;20075;-74
2021/01/19 03:22:10;;;;;;;11.27;3.57;;;5.80;90.00;;;;;;4922189;29;20489;-74
2021/01/19 03:24:37;;;;;;;13.27;3.60;;;5.70;90.10;;;;;;4922086;29;20071;-75
2021/01/19 03:27:03;;;;;;;12.57;3.47;;;5.80;90.50;;;;;;4939178;29;20032;-74
2021/01/19 03:29:29;;;;;;;13.23;3.73;;;5.70;90.80;;;;;;4939123;29;20067;-74
2021/01/19 03:31:55;;;;;;;12.50;4.13;;;5.60;91.00;;;;;;4937706;29;20050;-74
2021/01/19 03:34:20;;;;;;;16.70;4.20;;;5.60;91.20;;;;;;4939041;29;20047;-74
2021/01/19 03:36:46;;;;;;;14.73;4.33;;;5.70;91.40;;;;;;4939042;29;20067;-74
2021/01/19 03:39:13;;;;;;;17.50;4.37;;;5.60;91.60;;;;;;4937739;29;20040;-74
2021/01/19 03:41:39;;;;;;;17.70;4.80;;;5.50;91.70;;;;;;4921706;29;20070;-74
2021/01/19 03:44:05;;;;;;;14.90;5.20;;;5.50;91.90;;;;;;4938601;29;20063;-75
2021/01/19 03:46:31;;;;;;;20.27;5.20;;;5.50;92.00;;;;;;4890513;29;20107;-73
2021/01/19 03:48:58;;;;;;;11.33;4.53;;;5.50;92.30;;;;;;4938790;29;20027;-73
2021/01/19 03:51:24;;;;;;;17.97;5.50;;;5.40;92.30;;;;;;4938817;29;20023;-74
2021/01/19 03:53:53;;;;;;;16.67;5.27;;;5.40;92.60;;;;;;4938750;29;20032;-74
2021/01/19 03:56:19;;;;;;;15.17;5.50;;;5.30;92.80;;;;;;4938647;29;20110;-74
2021/01/19 03:58:45;;;;;;;19.57;5.43;;;5.40;93.10;;;;;;4906105;29;20396;-73
2021/01/19 04:01:10;;;;;;;23.13;6.60;;;5.30;93.20;;;;;;4938538;29;20032;-74
2021/01/19 04:03:36;;;;;;;23.57;6.07;;;5.30;93.60;;;;;;4938464;29;20036;-73
2021/01/19 04:06:06;;;;;;;19.23;6.27;;;5.30;93.70;;;;;;4921397;29;20038;-73
2021/01/19 04:08:32;;;;;;;21.93;6.90;;;5.20;94.00;;;;;;4921339;29;20119;-74
2021/01/19 04:10:57;;;;;;;21.37;7.53;;;5.20;94.20;;;;;;4937001;29;20036;-73
2021/01/19 04:13:23;;;;;;;15.13;6.73;;;5.20;94.40;;;;;;4921257;29;20368;-74
2021/01/19 04:15:50;;;;;;;20.77;8.27;;;5.10;94.60;;;;;;4905415;29;20032;-74
2021/01/19 04:18:15;;;;;;;22.83;8.20;;;5.10;94.80;;;;;;4921260;29;20492;-73
2021/01/19 04:20:41;;;;;;;15.37;7.70;;;5.10;95.00;;;;;;4905110;29;20035;-74
2021/01/19 04:23:06;;;;;;;19.13;8.97;;;5.10;95.40;;;;;;4937947;29;20035;-73
2021/01/19 04:25:32;;;;;;;26.40;8.90;;;5.00;95.80;;;;;;4920661;29;20043;-73
2021/01/19 04:27:58;;;;;;;25.70;9.23;;;5.00;95.90;;;;;;4938049;29;20040;-75
2021/01/19 04:30:24;;;;;;;28.13;10.83;;;5.00;95.90;;;;;;4920958;29;20036;-74
2021/01/19 04:32:50;;;;;;;22.10;10.47;;;4.90;96.20;;;;;;4936528;29;20030;-74
2021/01/19 04:35:16;;;;;;;22.00;10.83;;;4.90;96.40;;;;;;4937994;29;20027;-73
2021/01/19 04:37:42;;;;;;;23.97;10.77;;;4.90;96.60;;;;;;4937708;29;20421;-74
2021/01/19 04:40:10;;;;;;;25.70;11.53;;;4.90;96.80;;;;;;4937694;29;20075;-73
2021/01/19 04:42:37;;;;;;;23.67;10.80;;;4.90;96.80;;;;;;4920317;29;20031;-72
2021/01/19 04:45:05;;;;;;;27.13;12.43;;;4.90;97.00;;;;;;4937657;29;20044;-73
2021/01/19 04:47:32;;;;;;;25.07;10.93;;;4.90;97.20;;;;;;4937598;29;20032;-73
2021/01/19 04:50:01;;;;;;;20.87;10.67;;;4.90;97.50;;;;;;4920429;29;20023;-74
2021/01/19 04:52:28;;;;;;;23.80;12.07;;;4.90;97.30;;;;;;4920190;29;20488;-73
2021/01/19 04:55:31;;;;;;;24.67;11.73;;;4.90;97.40;;;;;;4937382;29;20039;-75
2021/01/19 04:58:05;;;;;;;22.90;11.10;;;4.90;97.50;;;;;;4936155;29;20031;-73
2021/01/19 05:00:33;;;;;;;24.55;12.13;;;4.90;97.80;;;;;;4936261;29;20463;-74
2021/01/19 05:03:32;;;;;;;30.80;13.23;;;4.80;97.60;;;;;;4936437;29;20035;-73
2021/01/19 05:06:13;;;;;;;24.67;12.43;;;4.90;97.70;;;;;;4919186;29;20114;-73
2021/01/19 05:08:40;;;;;;;24.10;12.80;;;4.90;97.80;;;;;;4935912;29;20090;-74
2021/01/19 05:11:11;;;;;;;31.37;12.70;;;4.80;97.90;;;;;;4936842;29;20040;-74
2021/01/19 05:13:53;;;;;;;31.97;13.43;;;4.80;98.00;;;;;;4937051;29;20403;-73
2021/01/19 05:16:21;;;;;;;22.13;12.23;;;4.80;98.00;;;;;;4920128;29;20440;-74
2021/01/19 05:18:48;;;;;;;24.03;13.53;;;4.80;98.10;;;;;;4920061;29;20032;-73
2021/01/19 05:21:14;;;;;;;30.83;13.20;;;4.80;98.20;;;;;;4936967;29;20086;-73
2021/01/19 05:23:40;;;;;;;25.40;12.97;;;4.80;98.20;;;;;;4937157;29;20027;-74
2021/01/19 05:26:07;;;;;;;19.47;12.07;;;4.80;98.30;;;;;;4920082;29;20498;-73
2021/01/19 05:28:41;;;;;;;26.00;12.70;;;4.80;98.40;;;;;;4919779;29;20027;-74
2021/01/19 05:31:27;;;;;;;21.95;12.70;;;4.80;98.50;;;;;;4936974;29;20038;-73
2021/01/19 05:33:53;;;;;;;19.63;11.20;;;4.80;98.50;;;;;;4919650;29;20114;-73
2021/01/19 05:36:39;;;;;;;18.43;12.30;;;4.80;98.60;;;;;;4919737;29;20563;-73
2021/01/19 05:39:09;;;;;;;20.53;10.67;;;4.80;98.70;;;;;;4923233;29;20091;-73
2021/01/19 05:41:43;;;;;;;18.60;11.27;;;4.80;98.70;;;;;;4936841;29;20450;-74
2021/01/19 05:44:10;;;;;;;20.53;10.63;;;4.80;98.70;;;;;;4935894;29;20522;-74
2021/01/19 05:46:42;;;;;;;14.97;10.27;;;4.80;98.70;;;;;;4936005;29;20047;-74
2021/01/19 05:49:13;;;;;;;20.23;9.90;;;4.80;98.80;;;;;;4935448;29;20031;-73
2021/01/19 05:51:42;;;;;;;16.07;9.23;;;4.90;98.80;;;;;;4935228;29;20034;-75
2021/01/19 05:54:11;;;;;;;14.80;9.20;;;4.90;98.80;;;;;;4936111;29;20062;-74
2021/01/19 05:56:37;;;;;;;16.67;9.33;;;4.90;98.90;;;;;;4936105;29;20063;-74
2021/01/19 05:59:04;;;;;;;15.80;9.23;;;4.90;98.90;;;;;;4919471;29;20031;-73
2021/01/19 06:01:31;;;;;;;16.23;9.43;;;4.90;98.90;;;;;;4919371;29;20035;-74
2021/01/19 06:04:02;;;;;;;14.87;9.17;;;4.90;98.90;;;;;;4919309;29;20064;-74
2021/01/19 06:06:29;;;;;;;16.67;8.53;;;4.90;98.90;;;;;;4936196;29;20032;-74
2021/01/19 06:09:04;;;;;;;15.47;8.27;;;4.90;99.00;;;;;;4919313;29;20024;-73
2021/01/19 06:11:31;;;;;;;12.63;7.87;;;5.00;99.00;;;;;;4919172;29;20055;-73
2021/01/19 06:13:57;;;;;;;14.40;8.90;;;5.00;99.00;;;;;;4919134;29;20032;-73
2021/01/19 06:16:24;;;;;;;15.03;7.63;;;5.00;99.00;;;;;;4919038;29;20027;-73
2021/01/19 06:18:51;;;;;;;15.10;8.20;;;5.00;99.00;;;;;;4936170;29;20118;-73
2021/01/19 06:21:26;;;;;;;13.17;6.63;;;5.00;99.00;;;;;;4919107;29;20031;-73
2021/01/19 06:23:51;;;;;;;12.53;6.67;;;5.00;99.00;;;;;;4943386;29;20519;-73
2021/01/19 06:26:17;;;;;;;13.73;6.93;;;5.10;99.10;;;;;;4927400;29;20028;-73
2021/01/19 06:28:43;;;;;;;11.30;6.30;;;5.10;99.10;;;;;;4914006;29;20095;-74
2021/01/19 06:31:23;;;;;;;14.10;6.60;;;5.10;99.10;;;;;;4916275;29;20028;-73
2021/01/19 06:33:52;;;;;;;10.03;5.67;;;5.10;99.10;;;;;;4944943;29;20037;-74
2021/01/19 06:36:18;;;;;;;8.40;5.33;;;5.10;99.10;;;;;;4943387;29;20035;-73
2021/01/19 06:38:46;;;;;;;9.40;5.30;;;5.10;99.20;;;;;;4929252;29;20023;-74
2021/01/19 06:41:18;;;;;;;10.67;5.43;;;5.20;99.40;;;;;;4923987;29;20060;-79
2021/01/19 06:43:51;;;;;;;9.97;5.60;;;5.20;99.20;;;;;;4940462;29;20138;-80
2021/01/19 06:46:19;;;;;;;9.07;5.10;;;5.20;99.20;;;;;;4936437;29;20138;-79
2021/01/19 06:48:46;;;;;;;7.80;4.57;;;5.20;99.20;;;;;;4931795;29;20388;-82
2021/01/19 06:51:13;;;;;;;8.33;4.67;;;5.20;99.40;;;;;;4930289;29;20018;-79
2021/01/19 06:53:46;;;;;;;7.40;4.50;;;5.30;99.50;;;;;;4937568;29;20027;-80
2021/01/19 06:56:12;;;;;;;8.20;4.00;;;5.30;99.20;;;;;;4941039;29;20445;-79
2021/01/19 06:58:50;;;;;;;7.97;3.90;;;5.30;99.20;;;;;;4941613;29;20046;-80
2021/01/19 07:01:18;;;;;;;7.27;3.63;;;5.30;99.20;;;;;;4941462;29;20028;-81
2021/01/19 07:03:45;;;;;;;8.23;4.20;;;5.30;99.20;;;;;;4958813;29;20059;-78
2021/01/19 07:06:12;;;;;;;6.60;3.87;;;5.30;99.20;;;;;;4958855;29;20144;-78
2021/01/19 07:08:59;;;;;;;7.60;3.40;;;5.30;99.20;;;;;;4958853;29;20023;-79
2021/01/19 07:11:57;;;;;;;6.97;3.67;;;5.40;99.20;;;;;;4958662;29;20023;-79
2021/01/19 07:14:36;;;;;;;4.50;2.30;;;5.40;99.20;;;;;;4958470;29;20027;-79
2021/01/19 07:17:07;;;;;;;3.40;1.90;;;5.40;99.20;;;;;;4941322;29;20113;-80
2021/01/19 07:19:42;;;;;;;4.60;1.90;;;5.40;99.20;;;;;;4958573;29;20496;-82
2021/01/19 07:22:09;;;;;;;2.97;1.20;;;5.40;99.20;;;;;;4947714;29;20028;-81
2021/01/19 07:24:49;;;;;;;3.63;1.03;;;5.40;99.20;;;;;;4951318;28;20488;-78
2021/01/19 07:27:20;;;;;;;2.50;0.83;;;5.50;99.20;;;;;;4940805;29;20027;-79
2021/01/19 07:29:47;;;;;;;1.00;0.60;;;5.50;99.20;;;;;;4955789;29;20051;-79
2021/01/19 07:32:22;;;;;;;2.13;0.70;;;5.50;99.20;;;;;;4947261;28;20041;-78
2021/01/19 07:34:48;;;;;;;1.27;0.50;;;5.60;99.20;;;;;;4958034;29;20114;-82
2021/01/19 07:37:13;;;;;;;1.43;0.50;;;5.60;99.20;;;;;;4958025;29;20031;-81
2021/01/19 07:39:39;;;;;;;1.47;0.60;;;5.60;99.20;;;;;;4937988;29;20038;-85
2021/01/19 07:42:24;;;;;;;1.80;0.60;;;5.60;99.20;;;;;;4948979;29;20027;-82
2021/01/19 07:44:56;;;;;;;;;;;5.60;99.20;;;;;;4938545;29;20126;-81
2021/01/19 07:47:39;;;;;;;1.00;0.40;;;5.60;99.20;;;;;;4940370;29;20335;-82
2021/01/19 07:50:16;;;;;;;1.27;0.47;;;5.60;99.20;;;;;;4939292;29;20114;-83
2021/01/19 07:52:44;;;;;;;0.90;0.30;;;5.70;99.20;;;;;;4958068;29;20583;-82
2021/01/19 07:55:18;;;;;;;0.80;0.30;;;5.70;99.50;;;;;;4939501;29;20040;-83
2021/01/19 07:57:44;;;;;;;;;;;5.70;99.30;;;;;;4951987;29;20505;-81
2021/01/19 08:00:11;;;;;;;0.77;0.30;;;5.70;99.20;;;;;;4957450;28;19907;-83
2021/01/19 08:02:37;;;;;;;0.60;0.30;;;5.80;99.20;;;;;;4951834;29;20126;-81
2021/01/19 08:05:06;;;;;;;0.50;0.20;;;5.80;99.20;;;;;;4924873;29;20455;-82
2021/01/19 08:07:45;;;;;;;0.53;0.20;;;5.80;99.20;;;;;;4940425;29;20031;-81
2021/01/19 08:10:21;;;;;;;0.43;0.20;;;5.80;99.20;;;;;;4957678;29;20440;-82
2021/01/19 08:12:48;;;;;;;0.30;0.20;;;5.90;99.20;;;;;;4940207;29;20008;-83
2021/01/19 08:15:21;;;;;;;0.40;0.20;;;5.90;99.20;;;;;;4924541;29;20035;-82
2021/01/19 08:17:52;;;;;;;0.50;0.30;;;5.90;99.20;;;;;;4940179;29;20033;-83
2021/01/19 08:20:30;;;;;;;0.30;0.20;;;6.00;99.20;;;;;;4932182;29;20523;-82
2021/01/19 08:23:13;;;;;;;0.70;0.20;;;6.00;99.20;;;;;;4921187;29;20484;-82
2021/01/19 08:25:39;;;;;;;0.60;0.30;;;6.00;99.20;;;;;;4920879;29;20023;-83
2021/01/19 08:28:05;;;;;;;0.40;0.30;;;6.00;99.20;;;;;;4938350;29;20028;-82
2021/01/19 08:30:32;;;;;;;0.30;0.20;;;6.00;99.20;;;;;;4922701;29;20038;-83
2021/01/19 08:32:59;;;;;;;0.40;0.20;;;6.10;99.20;;;;;;4945987;29;20034;-85
2021/01/19 08:35:27;;;;;;;0.50;0.20;;;6.10;99.30;;;;;;4930185;29;20027;-83
2021/01/19 08:37:58;;;;;;;0.37;0.20;;;6.10;99.20;;;;;;4957139;29;20038;-81
2021/01/19 08:40:29;;;;;;;0.50;0.20;;;6.20;99.30;;;;;;4957046;29;20110;-81
2021/01/19 08:42:56;;;;;;;0.70;0.30;;;6.20;99.30;;;;;;4949255;29;20122;-80
2021/01/19 08:45:27;;;;;;;0.70;0.30;;;6.20;99.20;;;;;;4929750;29;20039;-82
2021/01/19 08:47:55;;;;;;;0.20;0.20;;;6.20;99.20;;;;;;4945074;29;20417;-83
2021/01/19 08:50:21;;;;;;;0.70;0.27;;;6.20;99.20;;;;;;4948477;29;20035;-81
2021/01/19 08:52:47;;;;;;;0.23;0.17;;;6.20;99.30;;;;;;4945820;29;20070;-84
2021/01/19 08:55:15;;;;;;;0.37;0.20;;;6.20;99.30;;;;;;4939705;29;20028;-82
2021/01/19 08:57:41;;;;;;;0.40;0.20;;;6.30;99.30;;;;;;4920697;29;20042;-82
2021/01/19 09:00:07;;;;;;;0.80;0.20;;;6.30;99.30;;;;;;4910055;29;20135;-82
2021/01/19 09:02:33;;;;;;;0.27;0.20;;;6.30;99.30;;;;;;4909936;29;20032;-84
2021/01/19 09:04:58;;;;;;;0.20;0.20;;;6.40;99.30;;;;;;4920393;29;20028;-83
2021/01/19 09:07:28;;;;;;;0.40;0.20;;;6.30;99.30;;;;;;4920370;29;20031;-82
2021/01/19 09:09:54;;;;;;;0.20;0.20;;;6.30;99.30;;;;;;4939550;29;20019;-82
2021/01/19 09:12:20;;;;;;;0.30;0.17;;;6.40;99.60;;;;;;4927336;29;20028;-83
2021/01/19 09:14:53;;;;;;;0.30;0.20;;;6.40;99.30;;;;;;4939458;29;20535;-82
2021/01/19 09:17:26;;;;;;;0.40;0.20;;;6.40;99.30;;;;;;4938250;29;20035;-80
2021/01/19 09:20:04;;;;;;;0.38;0.20;;;6.50;99.30;;;;;;4956647;29;20031;-81
2021/01/19 09:22:30;;;;;;;0.33;0.20;;;6.50;99.30;;;;;;4956356;29;20030;-80
2021/01/19 09:24:56;;;;;;;0.30;0.20;;;6.50;99.30;;;;;;4952997;29;20043;-80
2021/01/19 09:27:22;;;;;;;0.43;0.20;;;6.60;99.30;;;;;;4939079;29;20031;-80
2021/01/19 09:29:47;;;;;;;1.20;0.10;;;6.60;99.30;;;;;;4923276;29;20040;-81
2021/01/19 09:32:18;;;;;;;0.30;0.17;;;6.60;99.40;;;;;;4938679;29;20023;-84
2021/01/19 09:34:47;;;;;;;0.30;0.20;;;6.60;99.40;;;;;;4955971;29;20117;-84
2021/01/19 09:37:13;;;;;;;0.30;0.20;;;6.60;99.40;;;;;;4938680;29;20034;-81
2021/01/19 09:39:40;;;;;;;0.40;0.20;;;6.70;99.40;;;;;;4938141;29;20059;-84
2021/01/19 09:42:07;;;;;;;0.30;0.20;;;6.70;99.40;;;;;;4927884;29;20079;-83
2021/01/19 09:44:35;;;;;;;0.47;0.20;;;6.70;99.40;;;;;;4919327;29;20496;-82
2021/01/19 09:47:06;;;;;;;0.40;0.30;;;6.70;99.40;;;;;;4936563;29;20032;-83
2021/01/19 09:49:34;;;;;;;0.43;0.23;;;6.80;99.40;;;;;;4919465;29;20034;-86
2021/01/19 09:52:13;;;;;;;0.43;0.20;;;6.80;99.40;;;;;;4936537;29;20087;-81
2021/01/19 09:54:40;;;;;;;0.70;0.30;;;6.80;99.40;;;;;;4919172;29;20023;-82
2021/01/19 09:57:09;;;;;;;0.53;0.20;;;6.80;99.40;;;;;;4926988;29;20058;-81
2021/01/19 09:59:36;;;;;;;0.40;0.20;;;6.90;99.50;;;;;;4936481;29;20031;-82
2021/01/19 10:02:02;;;;;;;0.40;0.20;;;6.90;99.80;;;;;;4919575;29;20059;-81
2021/01/19 10:04:28;;;;;;;0.93;0.30;;;6.90;99.50;;;;;;4923829;29;20043;-81
2021/01/19 10:07:05;;;;;;;0.50;0.30;;;7.00;99.50;;;;;;4938254;29;20400;-82
2021/01/19 10:09:31;;;;;;;0.63;0.30;;;7.00;99.50;;;;;;4955347;29;20487;-82
2021/01/19 10:12:05;;;;;;;0.50;0.23;;;7.10;99.50;;;;;;4955493;29;20110;-82
2021/01/19 10:14:34;;;;;;;0.40;0.20;;;7.10;99.50;;;;;;4952356;29;20024;-82
2021/01/19 10:17:01;;;;;;;1.03;0.23;;;7.20;99.60;;;;;;4947553;29;20031;-81
2021/01/19 10:19:31;;;;;;;0.37;0.20;;;7.20;99.60;;;;;;4955529;29;20031;-84
2021/01/19 10:22:05;;;;;;;0.30;0.20;;;7.20;99.60;;;;;;4938937;29;20035;-81
2021/01/19 10:24:31;;;;;;;0.40;0.20;;;7.20;99.50;;;;;;4937579;29;20031;-84
2021/01/19 10:27:03;;;;;;;0.57;0.27;;;7.30;99.50;;;;;;4954207;29;20188;-80
2021/01/19 10:29:36;;;;;;;0.40;0.20;;;7.30;99.60;;;;;;4943586;29;20023;-81
2021/01/19 10:32:04;;;;;;;0.87;0.30;;;7.40;99.60;;;;;;4938504;29;20027;-81
2021/01/19 10:34:33;;;;;;;0.50;0.30;;;7.40;99.60;;;;;;4918983;29;20079;-84
2021/01/19 10:36:59;;;;;;;0.53;0.30;;;7.40;99.60;;;;;;4918828;29;20492;-81
2021/01/19 10:39:26;;;;;;;0.77;0.33;;;7.50;99.60;;;;;;4935587;29;20030;-83
2021/01/19 10:41:55;;;;;;;0.80;0.30;;;7.60;99.60;;;;;;4935856;29;20032;-82
2021/01/19 10:44:22;;;;;;;0.40;0.20;;;7.50;99.60;;;;;;4919111;29;20051;-80
2021/01/19 10:46:55;;;;;;;0.60;0.30;;;7.60;99.60;;;;;;4918771;29;20032;-81
2021/01/19 10:49:25;;;;;;;0.73;0.30;;;7.70;99.70;;;;;;4943235;29;20498;-82
2021/01/19 10:51:51;;;;;;;0.33;0.20;;;7.70;99.60;;;;;;4918002;29;20086;-81
2021/01/19 10:54:19;;;;;;;0.60;0.30;;;7.80;99.70;;;;;;4927535;29;20059;-81
2021/01/19 10:56:46;;;;;;;0.60;0.30;;;7.80;99.70;;;;;;4928160;29;20027;-82
2021/01/19 10:59:13;;;;;;;0.80;0.30;;;7.90;99.70;;;;;;4926747;29;20040;-83
2021/01/19 11:01:39;;;;;;;0.50;0.30;;;7.90;99.70;;;;;;4950184;29;20031;-82
2021/01/19 11:04:06;;;;;;;0.47;0.23;;;8.00;99.80;;;;;;4921250;29;20377;-82
2021/01/19 11:06:33;;;;;;;0.40;0.20;;;8.10;99.90;;;;;;4935522;29;20568;-82
2021/01/19 11:08:59;;;;;;;0.40;0.20;;;8.20;99.80;;;;;;4935608;29;20158;-82
2021/01/19 11:11:26;;;;;;;0.50;0.30;;;8.20;99.80;;;;;;4935685;29;20067;-83
2021/01/19 11:13:52;;;;;;;0.33;0.20;;;8.30;99.80;;;;;;4944494;29;20530;-84
2021/01/19 11:16:18;;;;;;;0.70;0.33;;;8.40;99.80;;;;;;4906166;29;20194;-82
2021/01/19 11:18:43;;;;;;;0.60;0.30;;;8.50;99.80;;;;;;4937775;29;20399;-82
2021/01/19 11:21:10;;;;;;;0.40;0.20;;;8.50;99.80;;;;;;4954838;29;20111;-83
2021/01/19 11:23:36;;;;;;;0.60;0.30;;;8.60;99.80;;;;;;4953752;29;20041;-82
2021/01/19 11:26:01;;;;;;;0.50;0.30;;;8.60;99.80;;;;;;4907849;29;20040;-85
2021/01/19 11:28:27;;;;;;;1.00;0.30;;;8.70;99.80;;;;;;4923813;29;20035;-82
2021/01/19 11:30:52;;;;;;;0.83;0.40;;;8.70;99.80;;;;;;4918476;29;20476;-84
2021/01/19 11:33:18;;;;;;;2.10;0.40;;;8.80;99.80;;;;;;4935428;29;20067;-81
2021/01/19 11:35:44;;;;;;;0.50;0.20;;;8.80;99.80;;;;;;4934732;29;20086;-82
2021/01/19 11:38:10;;;;;;;1.23;0.30;;;8.70;99.70;;;;;;4924505;29;20031;-84
2021/01/19 11:40:35;;;;;;;0.40;0.27;;;8.80;99.70;;;;;;4949975;29;20027;-80
2021/01/19 11:43:01;;;;;;;0.47;0.20;;;8.80;99.70;;;;;;4953049;29;20463;-83
2021/01/19 11:45:28;;;;;;;1.27;0.40;;;8.90;99.70;;;;;;4890640;29;20071;-83
2021/01/19 11:47:54;;;;;;;0.70;0.30;;;8.90;99.70;;;;;;4922350;29;20028;-82
2021/01/19 11:50:20;;;;;;;1.00;0.30;;;8.90;99.70;;;;;;4921908;29;20047;-82
2021/01/19 11:52:46;;;;;;;0.97;0.30;;;8.90;99.70;;;;;;4921783;29;20547;-82
2021/01/19 11:55:12;;;;;;;0.57;0.30;;;9.00;99.70;;;;;;4921983;29;20068;-81
2021/01/19 11:57:38;;;;;;;0.50;0.30;;;9.00;99.70;;;;;;4921699;29;20373;-82
2021/01/19 12:00:08;;;;;;;1.07;0.30;;;9.00;99.80;;;;;;4921524;29;20403;-82
2021/01/19 12:02:34;;;;;;;0.80;0.30;;;9.00;99.80;;;;;;4938762;29;20620;-83
2021/01/19 12:05:00;;;;;;;0.87;0.20;;;9.10;99.80;;;;;;4921902;29;20118;-76
2021/01/19 12:07:26;;;;;;;0.50;0.20;;;9.10;99.80;;;;;;4937151;29;20024;-76
2021/01/19 12:09:52;;;;;;;0.93;0.30;;;9.10;99.80;;;;;;4921997;29;20364;-80
2021/01/19 12:12:18;;;;;;;0.97;0.40;;;9.10;99.80;;;;;;4921473;29;20119;-85
2021/01/19 12:14:43;;;;;;;0.90;0.30;;;9.20;99.80;;;;;;4937372;29;20126;-86
2021/01/19 12:17:09;;;;;;;0.83;0.30;;;9.20;99.80;;;;;;4937606;29;20038;-82
2021/01/19 12:19:35;;;;;;;0.87;0.30;;;9.20;99.80;;;;;;4937199;29;20095;-80
2021/01/19 12:22:00;;;;;;;0.30;0.20;;;9.20;99.80;;;;;;4921220;29;20083;-80
2021/01/19 12:24:27;;;;;;;0.77;0.30;;;9.30;99.80;;;;;;4937552;29;20480;-82
2021/01/19 12:26:57;;;;;;;1.07;0.40;;;9.20;99.70;;;;;;4939046;29;20059;-82
2021/01/19 12:29:25;;;;;;;1.30;0.30;;;9.30;99.70;;;;;;4921329;29;20032;-80
2021/01/19 12:31:51;;;;;;;1.27;0.40;;;9.30;99.70;;;;;;4921393;29;20476;-80
2021/01/19 12:34:18;;;;;;;0.90;0.30;;;9.30;99.70;;;;;;4939365;29;20039;-83
2021/01/19 12:36:44;;;;;;;1.30;0.50;;;9.30;99.70;;;;;;4918394;29;20580;-80
2021/01/19 12:39:10;;;;;;;1.70;0.40;;;9.40;99.80;;;;;;4949007;29;20363;-84
2021/01/19 12:41:36;;;;;;;1.37;0.50;;;9.40;99.80;;;;;;4939619;29;20035;-82
2021/01/19 12:44:05;;;;;;;1.20;0.40;;;9.40;99.80;;;;;;4956883;29;20058;-80
2021/01/19 12:46:32;;;;;;;1.37;0.60;;;9.40;99.80;;;;;;4926420;29;20043;-80
2021/01/19 12:48:57;;;;;;;1.03;0.40;;;9.50;99.80;;;;;;4920887;29;20055;-79
2021/01/19 12:51:25;;;;;;;1.60;0.60;;;9.50;99.80;;;;;;4889414;29;20479;-76
2021/01/19 12:53:51;;;;;;;2.10;0.57;;;9.50;99.80;;;;;;4929865;29;20089;-75
2021/01/19 12:56:17;;;;;;;1.67;0.50;;;9.50;99.80;;;;;;4957123;29;20035;-77
2021/01/19 12:58:44;;;;;;;1.43;0.60;;;9.60;99.90;;;;;;4939934;29;20035;-76